Time;durP1;ratioP1;P1;durP2;ratioP2;P2;SDS_P1;SDS_P2;PMS_P1;PMS_P2;Temp;Humidity;BMP_temperature;BMP_pressure;BME280_temperature;BME280_humidity;BME280_pressure;Samples;Min_cycle;Max_cycle;Signal;HPM_P1;HPM_P2
2023/03/10 00:00:53;;;;;;;24.35;13.95;;;1.20;99.90;;;;;;5114410;28;20046;-63
2023/03/10 00:03:19;;;;;;;22.75;13.63;;;1.20;99.90;;;;;;5111418;28;20050;-64
2023/03/10 00:05:48;;;;;;;22.27;13.98;;;1.20;99.90;;;;;;5113531;28;20427;-64
2023/03/10 00:08:15;;;;;;;24.02;14.82;;;1.20;99.90;;;;;;5110835;28;20048;-64
2023/03/10 00:10:42;;;;;;;22.33;14.13;;;1.20;99.90;;;;;;5114005;28;20044;-64
2023/03/10 00:13:09;;;;;;;23.58;13.93;;;1.20;99.90;;;;;;5113181;28;20497;-64
2023/03/10 00:15:36;;;;;;;24.92;14.23;;;1.20;99.90;;;;;;5112652;28;20048;-63
2023/03/10 00:18:03;;;;;;;22.02;13.48;;;1.20;99.90;;;;;;5110347;28;20097;-64
2023/03/10 00:20:30;;;;;;;27.30;14.48;;;1.10;99.90;;;;;;5113163;28;20104;-63
2023/03/10 00:22:58;;;;;;;20.25;12.52;;;1.10;99.90;;;;;;5111649;28;20103;-64
2023/03/10 00:25:25;;;;;;;20.77;13.43;;;1.10;99.90;;;;;;5113832;28;20096;-64
2023/03/10 00:27:52;;;;;;;20.67;12.63;;;1.10;99.90;;;;;;5113223;28;20104;-64
2023/03/10 00:30:19;;;;;;;20.75;12.90;;;1.10;99.90;;;;;;5113584;28;20047;-64
2023/03/10 00:32:46;;;;;;;23.13;13.85;;;1.10;99.90;;;;;;5112435;28;20052;-63
2023/03/10 00:35:13;;;;;;;24.08;13.98;;;1.10;99.90;;;;;;5111627;28;20448;-64
2023/03/10 00:37:40;;;;;;;21.25;13.25;;;1.10;99.90;;;;;;5112242;28;20052;-64
2023/03/10 00:40:11;;;;;;;22.00;13.60;;;1.10;99.90;;;;;;5113349;28;20058;-64
2023/03/10 00:42:38;;;;;;;23.10;13.52;;;1.10;99.90;;;;;;5144143;27;20074;-64
2023/03/10 00:45:06;;;;;;;24.58;14.57;;;1.10;99.90;;;;;;5113071;28;20047;-63
2023/03/10 00:47:33;;;;;;;28.00;15.15;;;1.10;99.90;;;;;;5111582;28;20108;-64
2023/03/10 00:50:00;;;;;;;24.88;15.55;;;1.10;99.90;;;;;;5113184;28;20059;-64
2023/03/10 00:52:31;;;;;;;27.60;16.25;;;1.10;99.90;;;;;;5113069;28;20052;-64
2023/03/10 00:54:58;;;;;;;25.05;15.63;;;1.20;99.90;;;;;;5109854;28;20047;-63
2023/03/10 00:57:26;;;;;;;28.67;16.08;;;1.20;99.90;;;;;;5113031;28;20050;-64
2023/03/10 00:59:53;;;;;;;27.73;17.15;;;1.20;99.90;;;;;;5111605;28;20127;-64
2023/03/10 01:02:21;;;;;;;26.27;15.65;;;1.20;99.90;;;;;;5112212;28;20104;-64
2023/03/10 01:04:48;;;;;;;21.48;14.20;;;1.20;99.90;;;;;;5112710;28;20093;-64
2023/03/10 01:07:15;;;;;;;24.40;14.68;;;1.30;99.90;;;;;;5110944;28;20047;-63
2023/03/10 01:09:42;;;;;;;24.48;13.18;;;1.20;99.90;;;;;;5112201;28;20043;-63
2023/03/10 01:12:09;;;;;;;18.33;11.80;;;1.20;99.90;;;;;;5112989;28;20047;-63
2023/03/10 01:14:37;;;;;;;17.20;10.52;;;1.20;99.90;;;;;;5111513;28;20096;-64
2023/03/10 01:17:04;;;;;;;15.77;9.57;;;1.30;99.90;;;;;;5112106;28;20486;-63
2023/03/10 01:19:31;;;;;;;16.27;9.75;;;1.30;99.90;;;;;;5111271;28;20060;-63
2023/03/10 01:21:58;;;;;;;13.55;8.75;;;1.30;99.90;;;;;;5112706;28;20097;-64
2023/03/10 01:24:25;;;;;;;14.32;8.90;;;1.30;99.90;;;;;;5111734;28;20050;-63
2023/03/10 01:26:52;;;;;;;15.90;9.48;;;1.30;99.90;;;;;;5112637;28;20051;-63
2023/03/10 01:29:19;;;;;;;15.00;9.13;;;1.30;99.90;;;;;;5112344;28;20043;-63
2023/03/10 01:31:47;;;;;;;13.52;9.00;;;1.30;99.90;;;;;;5112218;28;20047;-62
2023/03/10 01:34:14;;;;;;;13.07;8.40;;;1.30;99.90;;;;;;5111172;28;20082;-63
2023/03/10 01:36:42;;;;;;;13.77;8.38;;;1.30;99.90;;;;;;5110954;28;20138;-63
2023/03/10 01:39:09;;;;;;;14.05;9.00;;;1.30;99.90;;;;;;5112450;28;20071;-64
2023/03/10 01:41:38;;;;;;;14.25;9.45;;;1.40;99.90;;;;;;5112483;28;20044;-63
2023/03/10 01:44:09;;;;;;;15.20;9.48;;;1.30;99.90;;;;;;5109605;28;20131;-64
2023/03/10 01:46:45;;;;;;;12.70;8.70;;;1.40;99.90;;;;;;5113475;28;20067;-63
2023/03/10 01:49:32;;;;;;;14.20;8.50;;;1.40;99.90;;;;;;5116691;28;20426;-63
2023/03/10 01:52:03;;;;;;;15.20;8.52;;;1.40;99.90;;;;;;5115161;28;20051;-64
2023/03/10 01:54:36;;;;;;;13.15;8.57;;;1.40;99.90;;;;;;5115338;28;20043;-64
2023/03/10 01:57:05;;;;;;;12.90;8.07;;;1.40;99.90;;;;;;5116728;28;20457;-63
2023/03/10 01:59:33;;;;;;;14.02;8.75;;;1.40;99.90;;;;;;5115681;28;20818;-64
2023/03/10 02:02:01;;;;;;;13.50;8.85;;;1.40;99.90;;;;;;5116460;28;20047;-64
2023/03/10 02:04:34;;;;;;;18.10;10.95;;;1.40;99.90;;;;;;5115777;28;20048;-64
2023/03/10 02:07:04;;;;;;;14.07;9.20;;;1.40;99.90;;;;;;5114580;28;20047;-64
2023/03/10 02:09:34;;;;;;;15.50;10.17;;;1.50;99.90;;;;;;5116675;28;20418;-64
2023/03/10 02:12:03;;;;;;;16.97;11.33;;;1.50;99.90;;;;;;5115965;28;20043;-64
2023/03/10 02:14:32;;;;;;;17.55;10.57;;;1.50;99.90;;;;;;5114935;28;20442;-64
2023/03/10 02:16:59;;;;;;;17.98;11.02;;;1.50;99.90;;;;;;5115222;28;20048;-64
2023/03/10 02:19:37;;;;;;;13.85;9.20;;;1.40;99.90;;;;;;5115374;28;20048;-63
2023/03/10 02:22:06;;;;;;;16.75;10.38;;;1.50;99.90;;;;;;5115142;28;20058;-64
2023/03/10 02:24:43;;;;;;;14.10;8.48;;;1.50;99.90;;;;;;5114633;28;20051;-64
2023/03/10 02:27:19;;;;;;;16.27;10.02;;;1.40;99.90;;;;;;5114350;28;20051;-64
2023/03/10 02:29:51;;;;;;;18.48;9.95;;;1.40;99.90;;;;;;5112370;28;20077;-64
2023/03/10 02:32:18;;;;;;;17.23;11.68;;;1.40;99.90;;;;;;5115861;28;20392;-63
2023/03/10 02:34:45;;;;;;;16.45;10.23;;;1.40;99.90;;;;;;5115444;28;20598;-64
2023/03/10 02:37:22;;;;;;;19.55;11.38;;;1.40;99.90;;;;;;5115819;28;20464;-64
2023/03/10 02:39:49;;;;;;;17.85;11.35;;;1.30;99.90;;;;;;5113519;28;20085;-63
2023/03/10 02:42:16;;;;;;;17.08;11.00;;;0.90;99.90;;;;;;5115345;28;20047;-63
2023/03/10 02:44:46;;;;;;;14.65;9.68;;;1.40;99.90;;;;;;5115696;28;20055;-63
2023/03/10 02:47:13;;;;;;;16.53;10.57;;;1.20;99.90;;;;;;5115158;28;20043;-63
2023/03/10 02:49:40;;;;;;;17.45;10.20;;;1.20;99.90;;;;;;5115337;28;20051;-63
2023/03/10 02:52:13;;;;;;;18.17;11.30;;;1.20;99.90;;;;;;5113501;28;20492;-63
2023/03/10 02:54:40;;;;;;;17.42;11.50;;;1.20;99.90;;;;;;5114516;28;20047;-63
2023/03/10 02:57:07;;;;;;;17.08;10.80;;;1.20;99.90;;;;;;5114324;28;20055;-62
2023/03/10 02:59:34;;;;;;;20.10;11.85;;;1.20;99.90;;;;;;5114355;28;20055;-63
2023/03/10 03:02:02;;;;;;;18.52;11.23;;;1.20;99.90;;;;;;5114726;28;20450;-63
2023/03/10 03:04:30;;;;;;;17.98;10.18;;;1.10;99.90;;;;;;5114942;28;20052;-63
2023/03/10 03:06:57;;;;;;;18.05;10.88;;;1.10;99.90;;;;;;5115147;28;20130;-63
2023/03/10 03:09:24;;;;;;;20.95;12.60;;;1.10;99.90;;;;;;5114670;28;20384;-63
2023/03/10 03:11:51;;;;;;;20.33;11.55;;;1.10;99.90;;;;;;5113752;28;20044;-63
2023/03/10 03:14:18;;;;;;;19.15;11.80;;;1.20;99.90;;;;;;5114971;28;20043;-63
2023/03/10 03:16:45;;;;;;;18.50;12.25;;;1.10;99.90;;;;;;5111201;28;20059;-63
2023/03/10 03:19:13;;;;;;;22.27;12.75;;;1.20;99.90;;;;;;5113741;28;20056;-63
2023/03/10 03:21:40;;;;;;;20.35;11.40;;;1.10;99.90;;;;;;5113900;28;20108;-64
2023/03/10 03:24:07;;;;;;;20.88;12.65;;;1.10;99.90;;;;;;5114387;28;20043;-63
2023/03/10 03:26:34;;;;;;;20.25;11.93;;;1.10;99.90;;;;;;5114938;28;20096;-63
2023/03/10 03:29:01;;;;;;;23.35;13.52;;;1.10;99.90;;;;;;5112826;28;20047;-64
2023/03/10 03:31:28;;;;;;;23.23;14.27;;;1.10;99.90;;;;;;5114247;28;20480;-64
2023/03/10 03:33:55;;;;;;;21.95;13.75;;;1.10;99.90;;;;;;5112321;28;20461;-63
2023/03/10 03:36:23;;;;;;;22.77;13.40;;;1.10;99.90;;;;;;5113829;28;20054;-64
2023/03/10 03:38:50;;;;;;;25.33;15.05;;;1.10;99.90;;;;;;5114731;28;20050;-64
2023/03/10 03:41:17;;;;;;;25.25;14.18;;;1.10;99.90;;;;;;5113451;28;20491;-64
2023/03/10 03:43:43;;;;;;;23.88;12.82;;;1.10;99.90;;;;;;5112891;28;20449;-64
2023/03/10 03:46:10;;;;;;;22.85;14.38;;;1.10;99.90;;;;;;5114367;28;20453;-64
2023/03/10 03:48:38;;;;;;;21.30;13.02;;;1.10;99.90;;;;;;5113214;28;20052;-63
2023/03/10 03:51:05;;;;;;;19.88;12.65;;;1.10;99.90;;;;;;5113669;28;20040;-64
2023/03/10 03:53:33;;;;;;;24.58;15.10;;;1.10;99.90;;;;;;5114330;28;20043;-64
2023/03/10 03:56:00;;;;;;;23.10;13.27;;;1.10;99.90;;;;;;5113129;28;20048;-65
2023/03/10 03:58:27;;;;;;;23.40;13.27;;;1.30;99.90;;;;;;5113812;28;20112;-64
2023/03/10 04:00:54;;;;;;;22.77;13.10;;;1.10;99.90;;;;;;5114204;28;20039;-64
2023/03/10 04:03:21;;;;;;;23.75;14.75;;;1.10;99.90;;;;;;5113861;28;20063;-64
2023/03/10 04:05:48;;;;;;;20.95;13.25;;;1.10;99.90;;;;;;5113679;28;20047;-64
2023/03/10 04:08:15;;;;;;;21.77;13.50;;;1.10;99.90;;;;;;5113726;28;20047;-64
2023/03/10 04:10:49;;;;;;;23.30;13.20;;;1.20;99.90;;;;;;5112889;28;20093;-64
2023/03/10 04:13:16;;;;;;;20.95;13.20;;;1.10;99.90;;;;;;5112405;28;20097;-63
2023/03/10 04:15:43;;;;;;;23.98;14.20;;;1.10;99.90;;;;;;5112614;28;20108;-63
2023/03/10 04:18:10;;;;;;;23.98;14.50;;;1.10;99.90;;;;;;5114220;28;20048;-64
2023/03/10 04:20:38;;;;;;;23.55;13.32;;;1.10;99.90;;;;;;5113048;28;20063;-63
2023/03/10 04:23:05;;;;;;;25.27;14.38;;;1.20;99.90;;;;;;5113767;28;20040;-63
2023/03/10 04:25:32;;;;;;;25.98;14.23;;;1.10;99.90;;;;;;5111885;28;20109;-64
2023/03/10 04:28:00;;;;;;;22.42;13.00;;;1.20;99.90;;;;;;5112641;28;20051;-64
2023/03/10 04:30:28;;;;;;;22.60;13.45;;;1.10;99.90;;;;;;5113482;28;20039;-63
2023/03/10 04:32:57;;;;;;;21.48;12.80;;;1.20;99.90;;;;;;5113116;27;20058;-63
2023/03/10 04:35:24;;;;;;;20.98;13.10;;;1.10;99.90;;;;;;5113674;28;20134;-63
2023/03/10 04:37:52;;;;;;;25.67;14.48;;;1.10;99.90;;;;;;5113354;28;20461;-64
2023/03/10 04:40:19;;;;;;;23.85;13.68;;;1.10;99.90;;;;;;5111827;28;20446;-63
2023/03/10 04:42:46;;;;;;;23.35;13.52;;;1.10;99.90;;;;;;5113007;28;21336;-64
2023/03/10 04:45:14;;;;;;;26.33;14.52;;;1.10;99.90;;;;;;5113313;28;20055;-64
2023/03/10 04:47:41;;;;;;;27.85;15.85;;;1.00;99.90;;;;;;5112677;28;20047;-63
2023/03/10 04:50:10;;;;;;;25.40;15.40;;;1.00;99.90;;;;;;5113389;28;20097;-63
2023/03/10 04:52:37;;;;;;;28.15;16.48;;;1.00;99.90;;;;;;5110666;28;20507;-63
2023/03/10 04:55:04;;;;;;;30.08;16.75;;;1.00;99.90;;;;;;5111390;28;20060;-63
2023/03/10 04:57:31;;;;;;;28.90;16.42;;;1.00;99.90;;;;;;5112985;28;20060;-63
2023/03/10 04:59:58;;;;;;;36.28;19.55;;;0.90;99.90;;;;;;5113040;28;20059;-63
2023/03/10 05:02:26;;;;;;;34.35;18.10;;;0.90;99.90;;;;;;5111090;28;20036;-64
2023/03/10 05:04:53;;;;;;;35.40;18.67;;;0.90;99.90;;;;;;5111408;28;20047;-63
2023/03/10 05:07:20;;;;;;;38.67;20.65;;;0.90;99.90;;;;;;5112929;28;20096;-63
2023/03/10 05:09:47;;;;;;;39.33;21.45;;;0.90;99.90;;;;;;5112268;28;20058;-63
2023/03/10 05:12:14;;;;;;;41.83;21.40;;;1.00;99.90;;;;;;5111640;28;20125;-63
2023/03/10 05:14:41;;;;;;;43.15;24.33;;;0.80;99.90;;;;;;5112204;28;20043;-63
2023/03/10 05:17:09;;;;;;;46.28;23.85;;;0.90;99.90;;;;;;5111664;28;20564;-64
2023/03/10 05:19:37;;;;;;;42.65;22.75;;;0.80;99.90;;;;;;5109156;28;20047;-64
2023/03/10 05:22:05;;;;;;;46.50;24.15;;;0.80;99.90;;;;;;5110009;28;20048;-64
2023/03/10 05:24:33;;;;;;;48.58;25.98;;;0.80;99.90;;;;;;5110522;28;20051;-63
2023/03/10 05:27:01;;;;;;;39.97;23.15;;;0.80;99.90;;;;;;5111403;28;20064;-64
2023/03/10 05:29:28;;;;;;;46.72;26.17;;;0.80;99.90;;;;;;5109854;28;20122;-63
2023/03/10 05:31:55;;;;;;;43.72;24.35;;;0.90;99.90;;;;;;5099019;28;20104;-63
2023/03/10 05:34:25;;;;;;;50.80;25.70;;;0.80;99.90;;;;;;5103692;28;20560;-62
2023/03/10 05:36:55;;;;;;;43.92;24.10;;;0.80;99.90;;;;;;5106852;28;20075;-63
2023/03/10 05:39:22;;;;;;;46.00;23.90;;;0.80;99.90;;;;;;5108427;28;20523;-63
2023/03/10 05:41:49;;;;;;;45.20;24.27;;;0.80;99.90;;;;;;5107145;28;20044;-64
2023/03/10 05:44:16;;;;;;;42.10;23.75;;;0.80;99.90;;;;;;5106469;28;20058;-64
2023/03/10 05:46:42;;;;;;;44.60;24.25;;;0.80;99.90;;;;;;5108356;28;20048;-63
2023/03/10 05:49:09;;;;;;;43.05;23.48;;;0.80;99.90;;;;;;5106960;28;20056;-63
2023/03/10 05:51:36;;;;;;;44.75;24.30;;;1.00;99.90;;;;;;5103772;28;20552;-63
2023/03/10 05:54:05;;;;;;;39.90;22.35;;;0.80;99.90;;;;;;5106872;28;20054;-64
2023/03/10 05:56:32;;;;;;;40.40;21.33;;;0.70;99.90;;;;;;5105615;28;20044;-62
2023/03/10 05:58:59;;;;;;;35.13;20.63;;;0.70;99.90;;;;;;5110149;28;20054;-62
2023/03/10 06:01:26;;;;;;;37.70;21.75;;;0.70;99.90;;;;;;5104888;28;20456;-63
2023/03/10 06:03:53;;;;;;;38.08;20.65;;;0.70;99.90;;;;;;5110304;28;20533;-63
2023/03/10 06:06:20;;;;;;;36.42;21.15;;;0.70;99.90;;;;;;5105047;28;20062;-62
2023/03/10 06:08:47;;;;;;;37.58;20.02;;;0.70;99.90;;;;;;5105170;28;20121;-63
2023/03/10 06:11:15;;;;;;;38.42;20.08;;;0.60;99.90;;;;;;5104349;28;20080;-63
2023/03/10 06:13:42;;;;;;;31.67;16.92;;;0.60;99.90;;;;;;5105997;28;20090;-63
2023/03/10 06:16:10;;;;;;;31.83;17.23;;;0.60;99.90;;;;;;5107654;28;20491;-63
2023/03/10 06:18:37;;;;;;;32.50;17.80;;;0.60;99.90;;;;;;5103833;28;20051;-63
2023/03/10 06:21:06;;;;;;;30.58;16.02;;;0.60;99.90;;;;;;5108394;28;20097;-64
2023/03/10 06:23:33;;;;;;;30.73;16.77;;;0.50;99.90;;;;;;5106664;28;20044;-63
2023/03/10 06:26:04;;;;;;;31.48;16.13;;;0.50;99.90;;;;;;5106313;28;20523;-63
2023/03/10 06:28:35;;;;;;;28.85;16.60;;;0.50;99.90;;;;;;5107473;28;20047;-63
2023/03/10 06:31:03;;;;;;;;;;;0.50;99.90;;;;;;5103160;28;20134;-63
2023/03/10 06:33:31;;;;;;;23.20;13.40;;;0.50;99.90;;;;;;5100805;28;19924;-63
2023/03/10 06:35:58;;;;;;;29.80;13.57;;;0.50;99.90;;;;;;5107612;28;20048;-63
2023/03/10 06:38:25;;;;;;;23.13;13.85;;;0.50;99.90;;;;;;5112487;28;20050;-63
2023/03/10 06:40:53;;;;;;;26.92;15.10;;;0.50;99.90;;;;;;5113142;28;20040;-64
2023/03/10 06:43:20;;;;;;;26.75;15.50;;;0.50;99.90;;;;;;5102200;28;20059;-63
2023/03/10 06:45:49;;;;;;;25.67;15.10;;;0.50;99.90;;;;;;5106581;28;20055;-64
2023/03/10 06:48:17;;;;;;;26.13;14.32;;;0.50;99.90;;;;;;5108007;28;20466;-63
2023/03/10 06:50:46;;;;;;;26.58;13.38;;;0.40;99.90;;;;;;5109791;28;20047;-63
2023/03/10 06:53:15;;;;;;;26.20;13.68;;;0.40;99.90;;;;;;5108313;28;20050;-63
2023/03/10 06:55:41;;;;;;;26.10;14.57;;;0.40;99.90;;;;;;5109878;28;20503;-62
2023/03/10 06:58:08;;;;;;;27.02;14.75;;;0.40;99.90;;;;;;5111906;28;20048;-63
2023/03/10 07:00:35;;;;;;;27.20;15.18;;;0.40;99.90;;;;;;5102656;27;20067;-64
2023/03/10 07:03:04;;;;;;;26.67;15.15;;;0.40;99.90;;;;;;5107353;28;20487;-63
2023/03/10 07:05:30;;;;;;;26.58;14.32;;;0.40;99.90;;;;;;5107743;28;20071;-63
2023/03/10 07:07:57;;;;;;;27.58;16.35;;;0.50;99.90;;;;;;5108751;28;20044;-64
2023/03/10 07:10:25;;;;;;;30.10;15.90;;;0.50;99.90;;;;;;5108426;28;20047;-64
2023/03/10 07:12:53;;;;;;;26.10;15.23;;;0.50;99.90;;;;;;5105096;28;20142;-64
2023/03/10 07:15:22;;;;;;;27.92;15.85;;;0.60;99.90;;;;;;5106577;28;20047;-64
2023/03/10 07:17:49;;;;;;;27.20;17.02;;;0.60;99.90;;;;;;5106879;28;20449;-63
2023/03/10 07:20:18;;;;;;;29.67;15.85;;;0.60;99.90;;;;;;5108892;28;20122;-64
2023/03/10 07:22:45;;;;;;;30.42;17.55;;;0.60;99.90;;;;;;5112254;28;20050;-64
2023/03/10 07:25:12;;;;;;;31.80;17.65;;;0.60;99.90;;;;;;5113306;28;20139;-64
2023/03/10 07:27:39;;;;;;;27.85;16.38;;;0.60;99.90;;;;;;5114182;28;20044;-64
2023/03/10 07:30:07;;;;;;;28.05;16.40;;;0.70;99.90;;;;;;5113229;28;20092;-63
2023/03/10 07:32:34;;;;;;;30.17;17.85;;;0.70;99.90;;;;;;5114095;28;20130;-64
2023/03/10 07:35:01;;;;;;;26.40;16.42;;;0.70;99.90;;;;;;5113834;28;20097;-64
2023/03/10 07:37:30;;;;;;;30.42;17.88;;;0.80;99.90;;;;;;5113714;28;20070;-64
2023/03/10 07:39:57;;;;;;;33.10;18.17;;;0.80;99.90;;;;;;5114416;28;20043;-63
2023/03/10 07:42:23;;;;;;;30.83;16.63;;;0.80;99.90;;;;;;5111649;28;20070;-64
2023/03/10 07:44:50;;;;;;;28.38;15.65;;;0.80;99.90;;;;;;5113333;28;20048;-64
2023/03/10 07:47:17;;;;;;;28.88;16.90;;;0.80;99.90;;;;;;5109120;28;20051;-64
2023/03/10 07:49:45;;;;;;;27.55;15.55;;;0.80;99.90;;;;;;5113452;28;20054;-64
2023/03/10 07:52:13;;;;;;;27.63;16.38;;;0.80;99.90;;;;;;5112773;28;20048;-64
2023/03/10 07:54:43;;;;;;;29.52;15.90;;;0.80;99.90;;;;;;5113225;28;20123;-64
2023/03/10 07:57:10;;;;;;;27.55;15.45;;;0.90;99.90;;;;;;5112301;28;20044;-63
2023/03/10 07:59:37;;;;;;;26.10;15.02;;;0.80;99.90;;;;;;5112548;28;20051;-63
2023/03/10 08:02:04;;;;;;;29.75;15.93;;;0.90;99.90;;;;;;5114013;28;20043;-63
2023/03/10 08:04:31;;;;;;;25.38;16.45;;;0.80;99.90;;;;;;5111758;28;20097;-63
2023/03/10 08:07:00;;;;;;;29.92;16.25;;;0.80;99.90;;;;;;5113780;28;20043;-63
2023/03/10 08:09:28;;;;;;;29.73;16.45;;;0.80;99.90;;;;;;5110045;28;20052;-64
2023/03/10 08:11:58;;;;;;;28.27;17.05;;;0.80;99.90;;;;;;5113000;28;20126;-63
2023/03/10 08:14:25;;;;;;;29.77;16.77;;;0.80;99.90;;;;;;5113910;28;20096;-64
2023/03/10 08:16:53;;;;;;;29.65;16.23;;;0.80;99.90;;;;;;5112265;28;20059;-63
2023/03/10 08:19:20;;;;;;;26.92;16.48;;;0.80;99.90;;;;;;5112961;28;20047;-63
2023/03/10 08:21:47;;;;;;;27.48;17.30;;;0.80;99.90;;;;;;5111976;28;20047;-63
2023/03/10 08:24:14;;;;;;;26.05;16.38;;;0.90;99.90;;;;;;5111945;28;20088;-63
2023/03/10 08:26:41;;;;;;;27.65;16.33;;;0.90;99.90;;;;;;5112961;28;20066;-63
2023/03/10 08:29:09;;;;;;;30.40;17.65;;;0.90;99.90;;;;;;5113417;28;20043;-64
2023/03/10 08:31:36;;;;;;;29.27;15.88;;;0.90;99.90;;;;;;5112613;28;20649;-64
2023/03/10 08:34:03;;;;;;;28.55;14.95;;;0.90;99.90;;;;;;5112040;28;20506;-64
2023/03/10 08:36:31;;;;;;;24.85;15.20;;;1.00;99.90;;;;;;5111863;28;20055;-63
2023/03/10 08:38:59;;;;;;;26.23;15.63;;;1.00;99.90;;;;;;5112530;28;20837;-63
2023/03/10 08:41:28;;;;;;;31.27;16.45;;;1.00;99.90;;;;;;5110193;28;20113;-63
2023/03/10 08:43:57;;;;;;;25.70;15.40;;;1.00;99.90;;;;;;5111626;28;20112;-64
2023/03/10 08:46:28;;;;;;;27.40;16.33;;;1.00;99.90;;;;;;5103988;28;20096;-64
2023/03/10 08:48:55;;;;;;;25.30;15.43;;;1.00;99.90;;;;;;5109900;28;20116;-64
2023/03/10 08:51:23;;;;;;;24.83;15.55;;;1.10;99.90;;;;;;5112797;28;20506;-63
2023/03/10 08:53:52;;;;;;;28.35;14.88;;;1.10;99.90;;;;;;5111557;28;20043;-63
2023/03/10 08:56:20;;;;;;;29.38;17.02;;;1.10;99.90;;;;;;5111388;28;20092;-63
2023/03/10 08:58:47;;;;;;;28.02;16.40;;;1.10;99.90;;;;;;5112639;28;20495;-64
2023/03/10 09:01:15;;;;;;;27.88;17.20;;;1.10;99.90;;;;;;5109955;28;20040;-64
2023/03/10 09:03:44;;;;;;;26.35;15.07;;;1.10;99.90;;;;;;5112354;28;20050;-64
2023/03/10 09:06:12;;;;;;;27.20;15.75;;;1.10;99.90;;;;;;5110941;28;20455;-64
2023/03/10 09:08:40;;;;;;;27.83;15.77;;;1.10;99.90;;;;;;5106195;28;20070;-63
2023/03/10 09:11:07;;;;;;;24.73;15.13;;;1.10;99.90;;;;;;5108885;28;20050;-63
2023/03/10 09:13:34;;;;;;;25.63;14.88;;;1.10;99.90;;;;;;5108011;28;20047;-64
2023/03/10 09:16:01;;;;;;;26.17;15.52;;;1.20;99.90;;;;;;5109835;28;20188;-63
2023/03/10 09:18:28;;;;;;;26.33;15.77;;;1.20;99.90;;;;;;5110286;28;20056;-64
2023/03/10 09:20:56;;;;;;;24.10;13.90;;;1.20;99.90;;;;;;5107902;28;20043;-64
2023/03/10 09:23:23;;;;;;;26.02;14.80;;;1.20;99.90;;;;;;5110503;28;20074;-64
2023/03/10 09:25:50;;;;;;;26.98;17.17;;;1.30;99.90;;;;;;5110875;28;20084;-64
2023/03/10 09:28:17;;;;;;;26.35;14.30;;;1.10;99.90;;;;;;5110424;28;20055;-64
2023/03/10 09:30:44;;;;;;;28.08;15.82;;;1.10;99.90;;;;;;5111361;28;20100;-64
2023/03/10 09:33:15;;;;;;;24.08;14.32;;;1.10;99.90;;;;;;5110292;28;20062;-64
2023/03/10 09:35:42;;;;;;;27.77;15.15;;;1.10;99.90;;;;;;5111442;28;20047;-64
2023/03/10 09:38:11;;;;;;;27.42;16.42;;;1.10;99.90;;;;;;5108476;28;20056;-64
2023/03/10 09:40:42;;;;;;;24.95;15.20;;;1.10;99.90;;;;;;5110331;28;20067;-64
2023/03/10 09:43:15;;;;;;;28.92;14.77;;;1.00;99.90;;;;;;5110020;28;20051;-64
2023/03/10 09:45:49;;;;;;;24.27;13.98;;;1.10;99.90;;;;;;5110311;28;20100;-63
2023/03/10 09:48:34;;;;;;;28.00;15.25;;;1.10;99.90;;;;;;5110463;28;20097;-64
2023/03/10 09:51:08;;;;;;;25.33;14.90;;;1.20;99.90;;;;;;5110440;28;20055;-64
2023/03/10 09:54:07;;;;;;;29.38;14.98;;;1.20;99.90;;;;;;5109449;28;20093;-63
2023/03/10 09:56:36;;;;;;;23.83;14.43;;;1.20;99.90;;;;;;5108398;28;20560;-63
2023/03/10 09:59:10;;;;;;;29.08;14.38;;;1.20;99.90;;;;;;5110119;28;20164;-64
2023/03/10 10:01:38;;;;;;;25.70;14.20;;;1.30;99.90;;;;;;5110894;28;20135;-63
2023/03/10 10:04:11;;;;;;;25.10;14.77;;;1.30;99.90;;;;;;5107945;28;20051;-64
2023/03/10 10:06:41;;;;;;;25.90;15.15;;;1.30;99.90;;;;;;5109334;28;20118;-63
2023/03/10 10:09:17;;;;;;;27.35;14.68;;;1.30;99.90;;;;;;5115186;28;20403;-63
2023/03/10 10:11:44;;;;;;;25.45;14.10;;;1.20;99.90;;;;;;5114003;28;20463;-64
2023/03/10 10:14:17;;;;;;;22.95;14.43;;;1.40;99.90;;;;;;5115476;28;20036;-64
2023/03/10 10:16:52;;;;;;;24.98;14.52;;;1.20;99.90;;;;;;5111378;28;20097;-64
2023/03/10 10:19:22;;;;;;;25.52;14.35;;;1.30;99.90;;;;;;5112967;28;20048;-64
2023/03/10 10:21:54;;;;;;;24.65;14.55;;;1.30;99.90;;;;;;5113116;28;20574;-64
2023/03/10 10:24:23;;;;;;;30.40;15.45;;;1.30;99.90;;;;;;5105193;28;20047;-63
2023/03/10 10:26:50;;;;;;;24.80;14.52;;;1.30;99.90;;;;;;5111226;28;20100;-64
2023/03/10 10:29:21;;;;;;;23.27;12.93;;;1.40;99.90;;;;;;5114180;28;20043;-64
2023/03/10 10:32:09;;;;;;;25.48;14.35;;;1.40;99.90;;;;;;5111449;28;20454;-63
2023/03/10 10:34:39;;;;;;;26.15;15.32;;;1.30;99.90;;;;;;5114928;28;20040;-63
2023/03/10 10:37:26;;;;;;;24.00;13.73;;;1.30;99.90;;;;;;5113096;28;20090;-63
2023/03/10 10:39:57;;;;;;;23.42;14.25;;;1.30;99.90;;;;;;5113665;28;20100;-63
2023/03/10 10:42:26;;;;;;;26.55;15.35;;;1.30;99.90;;;;;;5113201;28;20089;-64
2023/03/10 10:44:55;;;;;;;28.73;13.90;;;1.20;99.90;;;;;;5111969;28;20051;-63
2023/03/10 10:47:28;;;;;;;25.80;14.45;;;1.40;99.90;;;;;;5113375;28;20048;-63
2023/03/10 10:50:08;;;;;;;24.70;13.55;;;1.30;99.90;;;;;;5112011;28;20122;-64
2023/03/10 10:52:35;;;;;;;21.75;13.82;;;1.40;99.90;;;;;;5112059;28;20105;-63
2023/03/10 10:55:04;;;;;;;24.65;14.85;;;1.40;99.90;;;;;;5111087;28;20055;-63
2023/03/10 10:57:32;;;;;;;27.60;15.07;;;1.40;99.90;;;;;;5112019;28;20087;-64
2023/03/10 11:00:17;;;;;;;23.45;13.23;;;1.50;99.90;;;;;;5109630;28;20100;-63
2023/03/10 11:02:44;;;;;;;25.65;14.20;;;1.50;99.90;;;;;;5112996;28;20125;-63
2023/03/10 11:05:15;;;;;;;24.45;14.48;;;1.50;99.90;;;;;;5112379;28;20143;-63
2023/03/10 11:07:42;;;;;;;25.92;13.60;;;1.50;99.90;;;;;;5104366;28;20496;-63
2023/03/10 11:10:13;;;;;;;24.83;14.50;;;1.50;99.90;;;;;;5113387;28;20040;-63
2023/03/10 11:12:54;;;;;;;24.20;13.57;;;1.50;99.90;;;;;;5113300;28;20185;-64
2023/03/10 11:15:28;;;;;;;23.25;13.48;;;1.50;99.90;;;;;;5110361;28;20560;-63
2023/03/10 11:17:59;;;;;;;24.40;14.05;;;1.50;99.90;;;;;;5110926;28;20035;-64
2023/03/10 11:20:31;;;;;;;27.75;14.02;;;1.60;99.90;;;;;;5111520;28;20133;-64
2023/03/10 11:23:13;;;;;;;25.55;14.50;;;1.50;99.90;;;;;;5110423;28;20051;-63
2023/03/10 11:25:47;;;;;;;22.70;13.77;;;1.60;99.90;;;;;;5112858;28;20051;-63
2023/03/10 11:28:30;;;;;;;23.65;14.30;;;1.50;99.90;;;;;;5112028;28;20040;-63
2023/03/10 11:31:04;;;;;;;21.98;13.25;;;1.50;99.90;;;;;;5110612;28;20093;-63
2023/03/10 11:33:36;;;;;;;22.17;13.85;;;1.50;99.90;;;;;;5110067;28;20043;-63
2023/03/10 11:36:16;;;;;;;21.13;13.15;;;1.50;99.90;;;;;;5110607;28;20052;-63
2023/03/10 11:38:47;;;;;;;22.83;14.43;;;1.50;99.90;;;;;;5109102;28;20389;-63
2023/03/10 11:41:18;;;;;;;24.20;14.30;;;1.50;99.90;;;;;;5109942;28;20314;-63
2023/03/10 11:43:55;;;;;;;24.52;14.75;;;1.40;99.90;;;;;;5110020;28;20043;-63
2023/03/10 11:46:28;;;;;;;25.98;14.23;;;1.40;99.90;;;;;;5110057;28;20106;-62
2023/03/10 11:49:06;;;;;;;26.02;15.10;;;1.40;99.90;;;;;;5112887;28;20073;-62
2023/03/10 11:51:37;;;;;;;22.33;13.30;;;1.40;99.90;;;;;;5111888;28;20039;-62
2023/03/10 11:54:13;;;;;;;26.55;14.75;;;1.30;99.90;;;;;;5110770;28;20043;-63
2023/03/10 11:56:42;;;;;;;23.73;15.38;;;1.40;99.90;;;;;;5111286;28;20431;-63
2023/03/10 11:59:15;;;;;;;24.08;14.00;;;1.40;99.90;;;;;;5112074;28;20564;-62
2023/03/10 12:01:48;;;;;;;27.83;15.50;;;1.40;99.90;;;;;;5112699;28;20415;-63
2023/03/10 12:04:21;;;;;;;24.42;14.10;;;1.40;99.90;;;;;;5111925;28;20168;-63
2023/03/10 12:06:53;;;;;;;26.88;14.75;;;1.40;99.90;;;;;;5102182;27;20402;-63
2023/03/10 12:09:32;;;;;;;23.65;13.95;;;1.60;99.90;;;;;;5108701;28;20453;-63
2023/03/10 12:12:03;;;;;;;21.95;12.82;;;1.60;99.90;;;;;;5112157;28;20055;-63
2023/03/10 12:14:31;;;;;;;25.88;14.57;;;1.40;99.90;;;;;;5111237;28;20092;-63
2023/03/10 12:16:59;;;;;;;23.75;14.00;;;1.40;99.90;;;;;;5110918;28;20487;-63
2023/03/10 12:19:26;;;;;;;23.38;14.95;;;1.40;99.90;;;;;;5109285;28;20055;-63
2023/03/10 12:22:24;;;;;;;25.45;14.48;;;1.40;99.90;;;;;;5112421;28;20051;-63
2023/03/10 12:24:52;;;;;;;26.02;14.32;;;1.40;99.90;;;;;;5109756;28;20123;-63
2023/03/10 12:27:21;;;;;;;26.30;14.48;;;1.50;99.90;;;;;;5109881;28;20055;-63
2023/03/10 12:29:48;;;;;;;23.17;14.82;;;1.40;99.90;;;;;;5109996;28;20241;-63
2023/03/10 12:32:42;;;;;;;24.45;14.50;;;1.40;99.90;;;;;;5111874;28;20066;-63
2023/03/10 12:35:42;;;;;;;23.38;14.50;;;1.40;99.90;;;;;;5111783;28;20411;-63
2023/03/10 12:38:30;;;;;;;25.20;14.80;;;1.40;99.90;;;;;;5110548;28;20039;-63
2023/03/10 12:40:58;;;;;;;27.70;15.75;;;1.40;99.90;;;;;;5112770;28;20071;-63
2023/03/10 12:44:02;;;;;;;26.98;16.50;;;1.30;99.90;;;;;;5109947;28;20096;-63
2023/03/10 12:46:42;;;;;;;28.80;17.00;;;1.30;99.90;;;;;;5108810;28;20079;-63
2023/03/10 12:49:22;;;;;;;29.52;18.05;;;1.40;99.90;;;;;;5112413;28;20043;-64